Time;durP1;ratioP1;P1;durP2;ratioP2;P2;SDS_P1;SDS_P2;PMS_P1;PMS_P2;Temp;Humidity;BMP_temperature;BMP_pressure;BME280_temperature;BME280_humidity;BME280_pressure;Samples;Min_cycle;Max_cycle;Signal;HPM_P1;HPM_P2
2022/06/09 00:00:39;;;;;;;1.30;1.00;;;;;;;;;;5040418;28;20036;-71
2022/06/09 00:03:11;;;;;;;1.48;1.00;;;;;;;;;;5040160;28;20029;-73
2022/06/09 00:05:37;;;;;;;;;;;;;;;;;;5040313;28;20036;-71
2022/06/09 00:08:05;;;;;;;3.53;1.27;;;;;;;;;;5023026;28;20521;-71
2022/06/09 00:10:37;;;;;;;2.00;1.50;;;;;;;;;;5042937;28;20032;-71
2022/06/09 00:13:03;;;;;;;5.13;1.50;;;;;;;;;;5044629;28;20710;-72
2022/06/09 00:15:29;;;;;;;3.38;1.50;;;;;;;;;;5043004;28;20070;-73
2022/06/09 00:17:54;;;;;;;1.30;1.20;;;;;;;;;;5043750;28;20033;-73
2022/06/09 00:20:20;;;;;;;2.60;1.52;;;;;;;;;;5043754;28;20064;-71
2022/06/09 00:22:45;;;;;;;2.50;1.50;;;;;;;;;;5044537;28;20421;-71
2022/06/09 00:25:12;;;;;;;1.98;1.50;;;;;;;;;;5024748;28;20410;-74
2022/06/09 00:27:38;;;;;;;2.47;1.63;;;;;;;;;;5043312;28;20485;-71
2022/06/09 00:30:06;;;;;;;1.88;1.48;;;;;;;;;;5025994;28;20121;-72
2022/06/09 00:32:32;;;;;;;1.75;1.40;;;;;;;;;;5043832;28;20036;-75
2022/06/09 00:34:57;;;;;;;2.70;1.50;;;;;;;;;;5043345;28;20037;-74
2022/06/09 00:37:23;;;;;;;1.60;1.50;;;;;;;;;;5042420;28;20037;-73
2022/06/09 00:39:48;;;;;;;3.22;1.55;;;;;;;;;;5043509;28;20041;-72
2022/06/09 00:42:14;;;;;;;4.97;1.45;;;;;;;;;;5043481;28;20040;-74
2022/06/09 00:44:39;;;;;;;3.75;1.40;;;;;;;;;;5043170;28;20064;-72
2022/06/09 00:47:06;;;;;;;3.40;1.20;;;;;;;;;;5024142;28;20049;-74
2022/06/09 00:49:37;;;;;;;1.83;1.13;;;;;;;;;;5043248;28;20127;-73
2022/06/09 00:52:06;;;;;;;2.50;1.05;;;;;;;;;;5043663;28;20252;-71
2022/06/09 00:54:37;;;;;;;2.15;1.10;;;;;;;;;;5042747;28;20067;-74
2022/06/09 00:57:11;;;;;;;2.35;1.08;;;;;;;;;;5042891;28;20576;-72
2022/06/09 00:59:37;;;;;;;3.70;1.23;;;;;;;;;;5043178;28;20029;-72
2022/06/09 01:02:06;;;;;;;1.40;1.00;;;;;;;;;;5043298;28;20028;-71
2022/06/09 01:04:33;;;;;;;1.35;1.02;;;;;;;;;;5042813;28;20051;-73
2022/06/09 01:07:04;;;;;;;2.00;1.00;;;;;;;;;;5042661;28;20033;-73
2022/06/09 01:09:31;;;;;;;1.33;1.10;;;;;;;;;;5043186;28;20045;-71
2022/06/09 01:11:58;;;;;;;1.38;0.85;;;;;;;;;;5042683;28;20603;-71
2022/06/09 01:14:27;;;;;;;1.40;0.93;;;;;;;;;;5043307;28;20754;-71
2022/06/09 01:16:59;;;;;;;1.70;1.20;;;;;;;;;;5041890;28;20701;-71
2022/06/09 01:20:09;;;;;;;1.20;1.10;;;;;;;;;;5042401;28;20043;-74
2022/06/09 01:22:38;;;;;;;2.65;1.27;;;;;;;;;;5010826;28;20413;-71
2022/06/09 01:25:41;;;;;;;3.45;1.10;;;;;;;;;;5025270;28;20497;-71
2022/06/09 01:28:25;;;;;;;;;;;;;;;;;;5043421;28;20041;-73
2022/06/09 01:30:56;;;;;;;2.03;1.30;;;;;;;;;;5042524;28;19920;-72
2022/06/09 01:33:36;;;;;;;1.47;1.03;;;;;;;;;;5042457;28;20035;-72
2022/06/09 01:36:21;;;;;;;1.83;1.00;;;;;;;;;;5038848;28;20043;-73
2022/06/09 01:38:49;;;;;;;1.90;1.27;;;;;;;;;;5042741;28;20051;-72
2022/06/09 01:41:16;;;;;;;1.75;1.10;;;;;;;;;;5041701;28;20477;-72
2022/06/09 01:43:43;;;;;;;5.50;1.27;;;;;;;;;;5042746;28;20028;-72
2022/06/09 01:46:15;;;;;;;1.50;1.10;;;;;;;;;;5023402;28;20037;-72
2022/06/09 01:48:40;;;;;;;1.08;0.98;;;;;;;;;;5042897;28;20481;-73
2022/06/09 01:51:13;;;;;;;5.47;1.35;;;;;;;;;;5042244;28;20028;-72
2022/06/09 01:53:48;;;;;;;1.20;1.10;;;;;;;;;;5036150;28;20033;-73
2022/06/09 01:56:22;;;;;;;1.30;1.20;;;;;;;;;;5041342;28;20041;-71
2022/06/09 01:59:20;;;;;;;4.45;1.30;;;;;;;;;;5008317;28;20033;-72
2022/06/09 02:02:08;;;;;;;6.45;1.70;;;;;;;;;;5036617;28;20505;-72
2022/06/09 02:04:39;;;;;;;0.80;0.80;;;;;;;;;;5041605;28;20516;-73
2022/06/09 02:07:07;;;;;;;1.48;1.15;;;;;;;;;;5023445;28;20051;-72
2022/06/09 02:09:37;;;;;;;1.42;1.00;;;;;;;;;;5042150;28;20029;-72
2022/06/09 02:12:07;;;;;;;1.65;1.20;;;;;;;;;;5007515;28;20082;-71
2022/06/09 02:14:33;;;;;;;1.55;1.45;;;;;;;;;;5041783;28;20037;-72
2022/06/09 02:16:59;;;;;;;2.35;1.33;;;;;;;;;;5041173;28;20039;-70
2022/06/09 02:19:26;;;;;;;3.20;1.38;;;;;;;;;;5041785;28;20037;-71
2022/06/09 02:21:52;;;;;;;3.70;1.40;;;;;;;;;;5041735;28;20115;-72
2022/06/09 02:24:18;;;;;;;2.60;1.30;;;;;;;;;;5042478;28;20511;-71
2022/06/09 02:26:44;;;;;;;2.03;1.30;;;;;;;;;;5040345;28;20041;-70
2022/06/09 02:29:09;;;;;;;3.78;1.42;;;;;;;;;;5042004;28;20029;-71
2022/06/09 02:31:35;;;;;;;3.15;1.50;;;;;;;;;;5041200;28;20548;-71
2022/06/09 02:34:01;;;;;;;3.40;1.75;;;;;;;;;;5041809;28;20052;-71
2022/06/09 02:36:26;;;;;;;4.32;1.65;;;;;;;;;;5040003;28;22013;-69
2022/06/09 02:38:52;;;;;;;2.47;2.00;;;;;;;;;;5024308;28;20047;-70
2022/06/09 02:41:18;;;;;;;2.78;1.80;;;;;;;;;;5023448;28;20044;-70
2022/06/09 02:43:43;;;;;;;4.18;2.00;;;;;;;;;;5041822;28;20025;-71
2022/06/09 02:46:08;;;;;;;6.63;1.90;;;;;;;;;;5039881;28;20077;-71
2022/06/09 02:48:34;;;;;;;3.33;2.25;;;;;;;;;;5041152;28;20065;-70
2022/06/09 02:51:23;;;;;;;3.88;2.05;;;;;;;;;;5041270;28;20098;-71
2022/06/09 02:53:48;;;;;;;3.20;1.90;;;;;;;;;;5041571;28;20070;-70
2022/06/09 02:56:14;;;;;;;4.30;1.92;;;;;;;;;;5022568;28;20471;-70
2022/06/09 02:58:40;;;;;;;4.35;2.30;;;;;;;;;;5006484;28;20024;-70
2022/06/09 03:01:05;;;;;;;9.63;2.00;;;;;;;;;;5040692;28;20114;-71
2022/06/09 03:03:31;;;;;;;2.22;2.03;;;;;;;;;;5038605;28;20048;-72
2022/06/09 03:05:56;;;;;;;2.55;1.67;;;;;;;;;;5021855;28;20037;-71
2022/06/09 03:08:21;;;;;;;4.05;1.80;;;;;;;;;;5041334;28;20036;-72
2022/06/09 03:10:47;;;;;;;7.15;1.98;;;;;;;;;;5005668;28;20868;-71
2022/06/09 03:13:12;;;;;;;4.45;2.55;;;;;;;;;;5023531;28;20043;-71
2022/06/09 03:15:38;;;;;;;2.10;1.90;;;;;;;;;;5023010;28;20091;-72
2022/06/09 03:18:03;;;;;;;2.67;1.77;;;;;;;;;;5040798;28;20036;-72
2022/06/09 03:20:31;;;;;;;3.90;1.77;;;;;;;;;;5039751;28;20033;-72
2022/06/09 03:22:57;;;;;;;3.42;1.83;;;;;;;;;;5006540;28;20028;-71
2022/06/09 03:25:23;;;;;;;3.03;2.05;;;;;;;;;;5040338;28;20054;-72
2022/06/09 03:27:49;;;;;;;4.80;1.90;;;;;;;;;;5040225;28;20896;-71
2022/06/09 03:30:15;;;;;;;2.70;2.03;;;;;;;;;;5040775;28;20064;-72
2022/06/09 03:32:40;;;;;;;3.45;2.10;;;;;;;;;;5039876;28;20043;-71
2022/06/09 03:35:07;;;;;;;2.58;1.90;;;;;;;;;;5040421;28;20060;-69
2022/06/09 03:37:33;;;;;;;4.30;2.13;;;;;;;;;;5040182;28;20048;-71
2022/06/09 03:39:58;;;;;;;5.50;2.05;;;;;;;;;;5040668;28;20573;-71
2022/06/09 03:42:24;;;;;;;6.50;2.30;;;;;;;;;;5022558;28;20138;-71
2022/06/09 03:44:49;;;;;;;2.33;1.90;;;;;;;;;;5042269;28;20123;-69
2022/06/09 03:47:15;;;;;;;3.65;2.00;;;;;;;;;;5025904;28;20114;-71
2022/06/09 03:49:41;;;;;;;2.85;2.10;;;;;;;;;;5044519;28;20489;-71
2022/06/09 03:52:08;;;;;;;4.18;2.00;;;;;;;;;;5044732;28;20037;-71
2022/06/09 03:54:36;;;;;;;3.13;2.03;;;;;;;;;;5041904;28;20162;-70
2022/06/09 03:57:02;;;;;;;6.22;1.88;;;;;;;;;;5046076;28;20025;-72
2022/06/09 03:59:28;;;;;;;2.13;1.60;;;;;;;;;;5042726;28;20064;-70
2022/06/09 04:01:53;;;;;;;1.90;1.60;;;;;;;;;;5041058;28;20056;-72
2022/06/09 04:04:18;;;;;;;2.20;2.00;;;;;;;;;;5043767;28;20036;-70
2022/06/09 04:06:47;;;;;;;3.05;1.73;;;;;;;;;;5040970;28;20040;-70
2022/06/09 04:09:12;;;;;;;3.45;1.50;;;;;;;;;;5040877;28;20041;-72
2022/06/09 04:11:38;;;;;;;6.05;1.90;;;;;;;;;;5042187;28;20044;-71
2022/06/09 04:14:06;;;;;;;3.95;1.77;;;;;;;;;;5043234;28;20474;-71
2022/06/09 04:16:37;;;;;;;3.05;1.63;;;;;;;;;;5042800;28;20490;-70
2022/06/09 04:19:07;;;;;;;7.43;1.80;;;;;;;;;;5041434;28;20044;-71
2022/06/09 04:21:34;;;;;;;1.70;1.60;;;;;;;;;;5042105;28;20508;-72
2022/06/09 04:24:00;;;;;;;2.53;1.70;;;;;;;;;;5042907;28;20044;-71
2022/06/09 04:26:28;;;;;;;2.97;1.67;;;;;;;;;;5042262;28;20041;-71
2022/06/09 04:28:54;;;;;;;2.72;1.70;;;;;;;;;;5026450;28;20033;-71
2022/06/09 04:31:20;;;;;;;2.38;1.83;;;;;;;;;;5043822;28;20078;-70
2022/06/09 04:33:45;;;;;;;3.95;1.67;;;;;;;;;;5042869;28;20040;-71
2022/06/09 04:36:13;;;;;;;4.10;1.73;;;;;;;;;;5042867;28;20040;-71
2022/06/09 04:38:39;;;;;;;3.33;1.90;;;;;;;;;;5044026;28;20060;-72
2022/06/09 04:41:09;;;;;;;2.08;1.75;;;;;;;;;;5043800;28;20021;-72
2022/06/09 04:43:40;;;;;;;1.85;1.58;;;;;;;;;;5042439;28;20041;-71
2022/06/09 04:46:07;;;;;;;1.50;1.40;;;;;;;;;;5042466;28;20044;-72
2022/06/09 04:48:34;;;;;;;2.03;1.90;;;;;;;;;;5043597;28;20495;-73
2022/06/09 04:51:00;;;;;;;1.95;1.60;;;;;;;;;;5043949;28;20040;-71
2022/06/09 04:53:26;;;;;;;3.97;1.60;;;;;;;;;;5025908;28;20043;-71
2022/06/09 04:55:51;;;;;;;4.22;1.48;;;;;;;;;;5041860;28;20024;-72
2022/06/09 04:58:17;;;;;;;1.83;1.45;;;;;;;;;;5042888;28;20039;-73
2022/06/09 05:00:43;;;;;;;1.90;1.80;;;;;;;;;;5043306;28;20485;-72
2022/06/09 05:03:11;;;;;;;5.00;1.80;;;;;;;;;;5043220;28;20429;-71
2022/06/09 05:05:39;;;;;;;4.07;1.35;;;;;;;;;;5022521;28;20948;-72
2022/06/09 05:08:05;;;;;;;2.35;1.42;;;;;;;;;;5041595;28;20154;-72
2022/06/09 05:10:32;;;;;;;1.60;1.40;;;;;;;;;;5042988;28;20833;-73
2022/06/09 05:12:58;;;;;;;3.72;1.48;;;;;;;;;;5041858;28;20044;-72
2022/06/09 05:15:24;;;;;;;1.90;1.70;;;;;;;;;;5041577;28;20077;-71
2022/06/09 05:17:51;;;;;;;4.43;1.77;;;;;;;;;;5039807;28;20473;-72
2022/06/09 05:20:19;;;;;;;2.17;1.60;;;;;;;;;;5041666;28;20056;-71
2022/06/09 05:22:45;;;;;;;2.60;1.65;;;;;;;;;;5042545;28;20139;-71
2022/06/09 05:25:11;;;;;;;3.15;1.67;;;;;;;;;;5042394;28;20017;-73
2022/06/09 05:27:37;;;;;;;2.45;1.65;;;;;;;;;;5041724;28;20763;-71
2022/06/09 05:30:04;;;;;;;3.60;2.10;;;;;;;;;;5036685;28;20032;-75
2022/06/09 05:32:30;;;;;;;1.70;1.60;;;;;;;;;;5025009;28;20185;-73
2022/06/09 05:34:55;;;;;;;2.28;1.63;;;;;;;;;;5023583;28;20040;-73
2022/06/09 05:37:20;;;;;;;2.35;1.90;;;;;;;;;;5042568;28;20052;-73
2022/06/09 05:45:15;;;;;;;3.22;1.95;;;;;;;;;;5041643;28;20118;-72
2022/06/09 05:47:41;;;;;;;1.90;1.80;;;;;;;;;;5041329;28;20028;-72
2022/06/09 05:50:07;;;;;;;2.17;1.98;;;;;;;;;;5023550;28;20048;-72
2022/06/09 05:52:33;;;;;;;2.00;1.80;;;;;;;;;;5036517;28;20037;-72
2022/06/09 05:54:59;;;;;;;2.33;1.80;;;;;;;;;;5040015;28;20033;-73
2022/06/09 05:57:25;;;;;;;3.25;1.85;;;;;;;;;;5039504;28;20100;-71
2022/06/09 05:59:52;;;;;;;2.42;1.77;;;;;;;;;;5041535;28;20035;-71
2022/06/09 06:02:19;;;;;;;4.80;1.70;;;;;;;;;;5038883;28;20044;-71
2022/06/09 06:04:45;;;;;;;2.15;1.67;;;;;;;;;;5040932;28;20025;-71
2022/06/09 06:07:11;;;;;;;9.75;3.20;;;;;;;;;;5040032;28;20071;-71
2022/06/09 06:09:37;;;;;;;2.03;1.80;;;;;;;;;;5042029;28;20032;-71
2022/06/09 06:12:03;;;;;;;2.63;1.85;;;;;;;;;;5041415;28;20440;-71
2022/06/09 06:14:30;;;;;;;3.08;1.90;;;;;;;;;;5007438;28;20037;-71
2022/06/09 06:16:56;;;;;;;2.58;1.58;;;;;;;;;;5040543;28;20025;-71
2022/06/09 06:19:23;;;;;;;1.70;1.60;;;;;;;;;;5041524;28;20116;-71
2022/06/09 06:21:51;;;;;;;1.73;1.50;;;;;;;;;;5041570;28;20089;-71
2022/06/09 06:24:18;;;;;;;1.65;1.48;;;;;;;;;;5041018;28;20041;-71
2022/06/09 06:26:44;;;;;;;2.38;1.70;;;;;;;;;;5041135;28;20037;-72
2022/06/09 06:29:22;;;;;;;5.45;1.77;;;;;;;;;;5040820;28;21039;-71
2022/06/09 06:31:48;;;;;;;2.50;1.60;;;;;;;;;;5039101;28;20083;-71
2022/06/09 06:34:14;;;;;;;1.60;1.50;;;;;;;;;;5038207;28;20040;-70
2022/06/09 06:36:40;;;;;;;2.05;1.88;;;;;;;;;;5039071;28;21192;-69
2022/06/09 06:39:05;;;;;;;2.38;1.80;;;;;;;;;;5039395;28;20413;-71
2022/06/09 06:41:31;;;;;;;3.08;2.10;;;;;;;;;;5040103;28;20032;-70
2022/06/09 06:43:57;;;;;;;3.53;1.85;;;;;;;;;;5039593;28;20416;-72
2022/06/09 06:46:22;;;;;;;1.70;1.60;;;;;;;;;;5038073;28;20068;-70
2022/06/09 06:48:48;;;;;;;2.00;1.90;;;;;;;;;;5039689;28;20036;-71
2022/06/09 06:51:13;;;;;;;1.80;1.70;;;;;;;;;;5040731;28;20040;-71
2022/06/09 06:53:39;;;;;;;2.78;1.75;;;;;;;;;;5041688;28;20397;-70
2022/06/09 06:56:07;;;;;;;2.50;1.50;;;;;;;;;;5040923;28;20033;-71
2022/06/09 06:58:32;;;;;;;1.70;1.60;;;;;;;;;;5040662;28;20048;-70
2022/06/09 07:00:59;;;;;;;2.13;1.50;;;;;;;;;;5040175;28;20100;-70
2022/06/09 07:03:25;;;;;;;1.67;1.35;;;;;;;;;;5038069;28;20456;-70
2022/06/09 07:05:50;;;;;;;2.95;1.40;;;;;;;;;;5041207;28;20021;-70
2022/06/09 07:08:16;;;;;;;1.55;1.30;;;;;;;;;;5039608;28;20043;-69
2022/06/09 07:10:44;;;;;;;1.63;1.40;;;;;;;;;;5040751;28;20020;-69
2022/06/09 07:13:09;;;;;;;3.15;1.75;;;;;;;;;;5041708;28;20039;-69
2022/06/09 07:15:35;;;;;;;1.95;1.70;;;;;;;;;;5040821;28;20036;-72
2022/06/09 07:18:00;;;;;;;1.50;1.27;;;;;;;;;;5038855;28;20401;-71
2022/06/09 07:20:26;;;;;;;4.50;1.40;;;;;;;;;;5043653;28;20071;-71
2022/06/09 07:22:53;;;;;;;1.70;1.50;;;;;;;;;;5026623;28;20041;-71
2022/06/09 07:25:20;;;;;;;1.67;1.30;;;;;;;;;;5045256;28;20040;-72
2022/06/09 07:27:47;;;;;;;1.70;1.10;;;;;;;;;;5044462;28;20267;-70
2022/06/09 07:30:13;;;;;;;2.17;1.00;;;;;;;;;;5044410;28;20033;-71
2022/06/09 07:32:38;;;;;;;2.83;1.00;;;;;;;;;;5044040;28;20082;-71
2022/06/09 07:35:04;;;;;;;2.92;1.08;;;;;;;;;;5043599;28;20028;-70
2022/06/09 07:37:30;;;;;;;4.75;1.33;;;;;;;;;;5044224;28;20456;-69
2022/06/09 07:39:55;;;;;;;1.85;1.10;;;;;;;;;;5026437;28;20045;-70
2022/06/09 07:42:21;;;;;;;2.65;1.67;;;;;;;;;;5044051;28;20033;-72
2022/06/09 07:44:46;;;;;;;2.80;1.38;;;;;;;;;;5044081;28;20040;-71
2022/06/09 07:47:12;;;;;;;2.35;1.02;;;;;;;;;;5044429;28;20037;-70
2022/06/09 07:49:37;;;;;;;2.13;0.95;;;;;;;;;;5044928;28;21085;-70
2022/06/09 07:52:03;;;;;;;0.60;0.60;;;;;;;;;;5044085;28;20112;-71
2022/06/09 07:54:29;;;;;;;1.63;0.73;;;;;;;;;;5043567;28;20033;-71
2022/06/09 07:56:54;;;;;;;1.38;0.50;;;;;;;;;;5044005;28;20029;-69
2022/06/09 07:59:20;;;;;;;0.75;0.60;;;;;;;;;;5044483;28;20037;-70
2022/06/09 08:01:46;;;;;;;0.70;0.50;;;;;;;;;;5025924;28;20049;-70
2022/06/09 08:04:12;;;;;;;2.10;0.85;;;;;;;;;;5043399;28;20144;-71
2022/06/09 08:06:38;;;;;;;1.85;1.23;;;;;;;;;;5043344;28;20025;-71
2022/06/09 08:09:04;;;;;;;0.50;0.50;;;;;;;;;;5044829;28;20044;-70
2022/06/09 08:11:33;;;;;;;2.88;0.68;;;;;;;;;;5044517;28;20036;-71
2022/06/09 08:14:00;;;;;;;0.45;0.45;;;;;;;;;;5025155;28;20040;-69
2022/06/09 08:16:28;;;;;;;0.98;0.35;;;;;;;;;;5025020;28;20096;-70
2022/06/09 08:18:53;;;;;;;1.95;0.60;;;;;;;;;;5009916;28;20024;-70
2022/06/09 08:21:19;;;;;;;1.83;0.73;;;;;;;;;;5026610;28;20166;-70
2022/06/09 08:23:44;;;;;;;1.25;0.60;;;;;;;;;;5043258;28;20036;-70
2022/06/09 08:26:10;;;;;;;1.95;0.70;;;;;;;;;;5024760;28;20029;-72
2022/06/09 08:28:35;;;;;;;0.85;0.77;;;;;;;;;;5042975;28;20039;-69
2022/06/09 08:31:01;;;;;;;1.92;0.90;;;;;;;;;;5044046;28;20033;-71
2022/06/09 08:33:26;;;;;;;2.22;0.80;;;;;;;;;;5025603;28;20037;-70
2022/06/09 08:35:53;;;;;;;1.35;0.65;;;;;;;;;;5042559;28;20505;-70
2022/06/09 08:38:19;;;;;;;0.73;0.70;;;;;;;;;;5042643;28;20599;-70
2022/06/09 08:40:44;;;;;;;3.88;0.90;;;;;;;;;;5043664;28;20436;-71
2022/06/09 08:43:46;;;;;;;0.93;0.90;;;;;;;;;;5044194;28;20477;-71
2022/06/09 08:46:24;;;;;;;2.75;1.00;;;;;;;;;;5042770;28;20036;-71
2022/06/09 08:48:54;;;;;;;1.10;0.93;;;;;;;;;;5043982;28;20052;-70
2022/06/09 08:51:23;;;;;;;0.80;0.73;;;;;;;;;;5043766;28;20028;-69
2022/06/09 08:53:54;;;;;;;1.83;1.00;;;;;;;;;;5048086;28;20036;-71
2022/06/09 08:56:26;;;;;;;0.95;0.90;;;;;;;;;;5042529;28;20033;-69
2022/06/09 08:59:10;;;;;;;;;;;;;;;;;;5043186;28;20029;-70
2022/06/09 09:01:44;;;;;;;3.95;0.90;;;;;;;;;;5025574;28;19974;-70
2022/06/09 09:04:24;;;;;;;2.05;1.20;;;;;;;;;;5043403;28;20036;-70
2022/06/09 09:06:58;;;;;;;0.90;0.90;;;;;;;;;;5044481;28;20106;-70
2022/06/09 09:09:28;;;;;;;2.38;0.98;;;;;;;;;;5041690;28;20473;-70
2022/06/09 09:12:03;;;;;;;4.15;1.50;;;;;;;;;;5043609;28;20047;-71
2022/06/09 09:14:47;;;;;;;3.20;1.48;;;;;;;;;;5043387;28;20036;-70
2022/06/09 09:17:25;;;;;;;3.63;1.67;;;;;;;;;;5049098;28;20037;-73
2022/06/09 09:20:15;;;;;;;2.90;1.80;;;;;;;;;;5043119;28;20037;-72
2022/06/09 09:22:48;;;;;;;2.05;1.50;;;;;;;;;;5043226;28;20032;-71
2022/06/09 09:25:39;;;;;;;2.45;1.55;;;;;;;;;;5042929;28;20036;-71
2022/06/09 09:28:27;;;;;;;4.00;1.90;;;;;;;;;;5043107;28;20094;-74
2022/06/09 09:31:17;;;;;;;5.30;1.70;;;;;;;;;;5045605;28;20937;-72
2022/06/09 09:33:52;;;;;;;2.75;1.90;;;;;;;;;;5037201;28;20489;-72
2022/06/09 09:36:24;;;;;;;1.63;1.50;;;;;;;;;;5042733;28;20107;-71
2022/06/09 09:38:55;;;;;;;4.50;2.00;;;;;;;;;;5043074;28;20496;-71
2022/06/09 09:41:26;;;;;;;3.72;2.33;;;;;;;;;;5041715;28;20074;-74
2022/06/09 09:43:54;;;;;;;2.43;2.00;;;;;;;;;;5041869;28;20029;-72
2022/06/09 09:46:32;;;;;;;7.07;2.67;;;;;;;;;;5042738;28;20368;-75
2022/06/09 09:49:00;;;;;;;4.07;2.53;;;;;;;;;;5043473;28;20041;-71
2022/06/09 09:51:35;;;;;;;4.10;2.40;;;;;;;;;;5040978;28;20045;-71
2022/06/09 09:54:09;;;;;;;4.13;2.55;;;;;;;;;;5024854;28;20055;-69
2022/06/09 09:56:37;;;;;;;9.35;2.60;;;;;;;;;;5041367;28;20066;-70
2022/06/09 09:59:17;;;;;;;4.80;2.72;;;;;;;;;;5042465;28;20552;-71
2022/06/09 10:10:06;;;;;;;7.35;3.28;;;;;;;;;;5042047;28;20067;-72
2022/06/09 10:12:34;;;;;;;3.55;3.10;;;;;;;;;;5041673;28;20036;-69
2022/06/09 10:15:08;;;;;;;4.60;2.90;;;;;;;;;;5041129;28;20079;-74
2022/06/09 10:17:43;;;;;;;4.55;3.00;;;;;;;;;;5023670;28;20033;-71
2022/06/09 10:20:33;;;;;;;5.45;2.92;;;;;;;;;;5023683;28;20071;-73
2022/06/09 10:22:58;;;;;;;3.95;3.00;;;;;;;;;;5041146;28;20090;-72
2022/06/09 10:25:45;;;;;;;4.97;2.60;;;;;;;;;;5041423;28;20444;-71
2022/06/09 10:28:19;;;;;;;3.80;2.78;;;;;;;;;;5041459;28;20060;-71
2022/06/09 10:30:54;;;;;;;4.70;3.22;;;;;;;;;;5042178;28;20025;-74
2022/06/09 10:33:22;;;;;;;4.63;2.80;;;;;;;;;;5041116;28;20035;-71
2022/06/09 10:35:57;;;;;;;4.97;2.25;;;;;;;;;;5040659;28;20394;-72
2022/06/09 10:38:32;;;;;;;5.45;2.42;;;;;;;;;;5041060;28;20533;-73
2022/06/09 10:41:01;;;;;;;5.80;2.42;;;;;;;;;;5040620;28;20116;-72
2022/06/09 10:43:40;;;;;;;4.47;2.33;;;;;;;;;;5041675;28;20029;-71
2022/06/09 10:46:23;;;;;;;4.05;2.22;;;;;;;;;;5022421;28;20402;-72
2022/06/09 10:57:54;;;;;;;2.65;1.60;;;;;;;;;;5040187;28;20037;-71
2022/06/09 11:00:24;;;;;;;3.20;1.75;;;;;;;;;;5041131;28;20477;-71
2022/06/09 11:02:54;;;;;;;7.93;1.98;;;;;;;;;;5041480;28;20032;-73
2022/06/09 11:05:29;;;;;;;1.23;0.50;;;;;;;;;;5040666;28;20079;-73
2022/06/09 11:08:23;;;;;;;1.83;1.02;;;;;;;;;;5040831;28;20124;-73
2022/06/09 11:11:10;;;;;;;1.48;0.75;;;;;;;;;;5040953;28;20503;-75
2022/06/09 11:14:03;;;;;;;1.30;0.90;;;;;;;;;;5023354;28;20527;-72
2022/06/09 11:16:28;;;;;;;;;;;;;;;;;;5040913;28;20055;-72
2022/06/09 11:19:12;;;;;;;2.83;0.70;;;;;;;;;;5022880;28;20328;-72
2022/06/09 11:21:43;;;;;;;1.58;0.77;;;;;;;;;;5041519;28;20033;-69
2022/06/09 11:24:38;;;;;;;3.73;0.90;;;;;;;;;;5022736;28;20037;-72
2022/06/09 11:27:22;;;;;;;1.45;0.77;;;;;;;;;;5031850;28;20524;-70
2022/06/09 11:30:05;;;;;;;1.40;0.60;;;;;;;;;;5041353;28;20562;-70
2022/06/09 11:33:12;;;;;;;1.38;0.85;;;;;;;;;;5040724;28;20045;-71
2022/06/09 11:35:48;;;;;;;2.75;0.98;;;;;;;;;;5040745;28;20455;-72
2022/06/09 11:38:54;;;;;;;2.53;1.20;;;;;;;;;;5039594;28;20470;-70
2022/06/09 11:41:29;;;;;;;0.90;0.60;;;;;;;;;;5039917;28;20036;-71
2022/06/09 11:44:32;;;;;;;2.30;0.50;;;;;;;;;;5040784;28;20029;-70
2022/06/09 11:47:05;;;;;;;1.77;0.70;;;;;;;;;;5015849;28;20049;-72
2022/06/09 11:49:38;;;;;;;2.50;0.70;;;;;;;;;;5022647;28;20474;-71
2022/06/09 11:52:07;;;;;;;1.50;0.73;;;;;;;;;;5040785;28;20227;-71
2022/06/09 11:54:48;;;;;;;3.53;0.88;;;;;;;;;;5040248;28;20048;-69
2022/06/09 11:57:16;;;;;;;5.25;1.15;;;;;;;;;;5040337;28;20025;-69
2022/06/09 11:59:59;;;;;;;3.00;0.85;;;;;;;;;;5042681;28;20048;-71
2022/06/09 12:02:39;;;;;;;2.47;0.85;;;;;;;;;;5041547;28;20047;-69
2022/06/09 12:05:19;;;;;;;3.30;0.75;;;;;;;;;;5039306;28;20040;-69
2022/06/09 12:07:53;;;;;;;1.98;1.10;;;;;;;;;;5043180;28;20037;-70
2022/06/09 12:10:35;;;;;;;3.40;1.00;;;;;;;;;;5025114;28;20497;-70
2022/06/09 12:13:12;;;;;;;4.10;1.17;;;;;;;;;;5044111;28;20037;-69
2022/06/09 12:16:18;;;;;;;2.05;1.20;;;;;;;;;;5043347;28;20041;-70
2022/06/09 12:18:57;;;;;;;4.07;1.20;;;;;;;;;;5038223;28;20037;-69
2022/06/09 12:21:34;;;;;;;1.67;1.00;;;;;;;;;;5044393;28;20040;-69
2022/06/09 12:24:35;;;;;;;2.20;0.93;;;;;;;;;;5045135;28;20107;-69
2022/06/09 12:27:26;;;;;;;2.75;0.85;;;;;;;;;;5042767;28;20041;-69
2022/06/09 12:29:57;;;;;;;3.65;0.80;;;;;;;;;;5033943;28;20049;-69
2022/06/09 12:32:35;;;;;;;;;;;;;;;;;;5026447;28;20401;-69
2022/06/09 12:35:01;;;;;;;1.73;0.60;;;;;;;;;;5044391;28;20010;-68
2022/06/09 12:37:34;;;;;;;1.40;0.50;;;;;;;;;;5043695;28;20029;-68
2022/06/09 12:40:17;;;;;;;1.88;0.60;;;;;;;;;;5050723;28;20037;-71
2022/06/09 12:43:02;;;;;;;6.75;0.80;;;;;;;;;;5044196;28;20046;-70
2022/06/09 12:45:30;;;;;;;0.50;0.50;;;;;;;;;;5045772;28;20051;-69
2022/06/09 12:47:56;;;;;;;2.13;0.95;;;;;;;;;;5042288;28;20963;-69
2022/06/09 12:50:34;;;;;;;1.63;0.70;;;;;;;;;;5043629;28;20040;-70
2022/06/09 12:53:04;;;;;;;1.25;0.60;;;;;;;;;;5044096;28;20036;-72
2022/06/09 12:55:35;;;;;;;2.35;0.65;;;;;;;;;;5010586;28;20090;-68
2022/06/09 12:58:06;;;;;;;0.68;0.60;;;;;;;;;;5043206;28;20083;-69
2022/06/09 13:00:44;;;;;;;2.80;0.60;;;;;;;;;;5042576;28;20040;-70
2022/06/09 13:03:23;;;;;;;2.22;0.80;;;;;;;;;;5043964;28;20512;-71
2022/06/09 13:05:49;;;;;;;1.60;0.50;;;;;;;;;;5043445;28;20044;-68
2022/06/09 13:08:25;;;;;;;1.02;0.50;;;;;;;;;;5024799;28;20041;-71
2022/06/09 13:11:07;;;;;;;0.77;0.50;;;;;;;;;;5042385;28;20029;-71
2022/06/09 13:13:44;;;;;;;3.08;0.82;;;;;;;;;;5006888;28;20064;-71
2022/06/09 13:16:24;;;;;;;1.10;0.40;;;;;;;;;;5042592;28;20029;-70
2022/06/09 13:18:59;;;;;;;1.50;0.63;;;;;;;;;;5042409;28;20634;-73
2022/06/09 13:21:32;;;;;;;0.57;0.40;;;;;;;;;;5025751;28;20481;-70
2022/06/09 13:23:59;;;;;;;1.48;0.35;;;;;;;;;;5042183;28;20041;-71
2022/06/09 13:26:28;;;;;;;0.73;0.40;;;;;;;;;;5042269;28;20071;-70
2022/06/09 13:29:00;;;;;;;2.30;0.45;;;;;;;;;;5042218;28;20065;-70
2022/06/09 13:31:34;;;;;;;2.88;0.55;;;;;;;;;;5041682;28;20044;-70
2022/06/09 13:34:05;;;;;;;1.48;0.60;;;;;;;;;;5042014;28;20037;-69
2022/06/09 13:36:33;;;;;;;1.10;0.52;;;;;;;;;;5042495;28;20143;-71
2022/06/09 13:39:27;;;;;;;1.05;0.45;;;;;;;;;;5024560;28;20666;-68
2022/06/09 13:42:26;;;;;;;2.28;0.70;;;;;;;;;;5042786;28;20502;-68
2022/06/09 13:44:51;;;;;;;1.35;0.73;;;;;;;;;;5025516;28;20045;-70
2022/06/09 13:47:23;;;;;;;0.70;0.57;;;;;;;;;;5036691;28;20041;-70
2022/06/09 13:49:55;;;;;;;0.95;0.50;;;;;;;;;;5024114;28;20037;-70
2022/06/09 13:52:32;;;;;;;1.70;0.57;;;;;;;;;;5023133;28;20029;-71
2022/06/09 13:54:58;;;;;;;0.90;0.77;;;;;;;;;;5039777;28;20079;-71
2022/06/09 13:57:27;;;;;;;1.92;0.75;;;;;;;;;;5037427;28;20029;-71
2022/06/09 13:59:53;;;;;;;1.30;0.80;;;;;;;;;;5041404;28;20032;-70
2022/06/09 14:02:21;;;;;;;1.13;0.80;;;;;;;;;;5023292;28;20577;-71
2022/06/09 14:04:48;;;;;;;0.70;0.60;;;;;;;;;;5040523;28;20072;-71
2022/06/09 14:07:17;;;;;;;2.28;0.50;;;;;;;;;;5039623;28;20132;-70
2022/06/09 14:09:45;;;;;;;3.30;0.65;;;;;;;;;;5040416;28;20150;-71
2022/06/09 14:12:11;;;;;;;1.08;0.63;;;;;;;;;;5041208;28;20547;-71
2022/06/09 14:14:37;;;;;;;1.30;0.70;;;;;;;;;;5023142;28;20063;-71
2022/06/09 14:17:03;;;;;;;0.80;0.50;;;;;;;;;;5039592;28;20075;-70
2022/06/09 14:19:28;;;;;;;2.25;0.80;;;;;;;;;;5041535;28;20119;-71
2022/06/09 14:21:54;;;;;;;2.08;0.63;;;;;;;;;;5041932;28;20143;-71
2022/06/09 14:24:22;;;;;;;1.60;0.68;;;;;;;;;;5041011;28;20036;-71
2022/06/09 14:26:51;;;;;;;1.20;0.55;;;;;;;;;;5039553;28;20036;-70
2022/06/09 14:29:18;;;;;;;1.40;0.68;;;;;;;;;;5039218;28;20037;-71
2022/06/09 14:31:44;;;;;;;0.85;0.70;;;;;;;;;;5041633;28;20052;-69
2022/06/09 14:34:11;;;;;;;1.48;0.73;;;;;;;;;;5041359;28;20029;-69
2022/06/09 14:36:36;;;;;;;3.55;1.10;;;;;;;;;;5041580;28;20037;-70
2022/06/09 14:39:04;;;;;;;2.35;0.60;;;;;;;;;;5039796;28;21085;-70
2022/06/09 14:41:30;;;;;;;2.22;0.52;;;;;;;;;;5041203;28;20528;-70
2022/06/09 14:43:55;;;;;;;0.90;0.40;;;;;;;;;;5040943;28;20064;-70
2022/06/09 14:46:37;;;;;;;1.98;0.40;;;;;;;;;;5040546;28;20059;-70
2022/06/09 14:49:05;;;;;;;1.52;0.40;;;;;;;;;;5039068;28;20040;-71
2022/06/09 14:51:31;;;;;;;3.10;0.70;;;;;;;;;;5040584;28;20051;-72
2022/06/09 14:53:57;;;;;;;0.82;0.40;;;;;;;;;;5039896;28;20405;-72
2022/06/09 14:56:29;;;;;;;1.85;0.63;;;;;;;;;;5041133;28;20119;-71
2022/06/09 14:58:54;;;;;;;1.27;0.32;;;;;;;;;;5039318;28;20116;-70
2022/06/09 15:01:20;;;;;;;2.15;0.63;;;;;;;;;;5037447;28;20078;-72
2022/06/09 15:03:46;;;;;;;0.73;0.45;;;;;;;;;;5040820;28;20041;-72
2022/06/09 15:06:17;;;;;;;0.63;0.52;;;;;;;;;;5023168;28;20143;-73
2022/06/09 15:08:45;;;;;;;6.35;1.08;;;;;;;;;;5039854;28;20029;-72
2022/06/09 15:11:11;;;;;;;1.23;0.57;;;;;;;;;;5039130;28;20033;-72
2022/06/09 15:13:36;;;;;;;1.67;0.50;;;;;;;;;;5039933;28;20114;-73
2022/06/09 15:16:02;;;;;;;3.45;0.68;;;;;;;;;;5022202;28;20040;-73
2022/06/09 15:18:30;;;;;;;2.45;0.70;;;;;;;;;;5021604;28;20044;-71
2022/06/09 15:20:57;;;;;;;0.60;0.30;;;;;;;;;;5037210;28;20103;-71
2022/06/09 15:23:22;;;;;;;3.17;0.70;;;;;;;;;;5041678;28;20040;-71
2022/06/09 15:25:49;;;;;;;1.63;0.60;;;;;;;;;;5026054;28;20048;-72
2022/06/09 15:28:18;;;;;;;0.95;0.60;;;;;;;;;;5039047;28;20025;-73